Crescent Mills, Massachusetts
Current Conditions -  °F | °C
As of 3:53 AM on Wednesday 22 Oct 2014 (Local Time) from KBAF Reporting Station
Overcast Overcast  
Wind Chill: 53°   Ceiling: 1100
Heat Index: 53°   Visibility: 10mi
Dew Point: 48°   Wind: 7mph
Humidity: 83%   Direction: 20°NNE
Pressure: 29.98"   Gusts: NA
Location:  42.3047°N, 72.879°W
Report Text: KBAF 220753Z 02006KT 10SM OVC011 12/09 A2998 RMK AO2 SLP152 T01170089
Loading
Personal Weather Stations






























Interactive Weather Map
Tropical Storm Tracking
New forecast layout! Learn more

10-Day Weather Forecast

Advertisements
Track Severe Weather on mobile